Osa, Russia
Current Conditions -  °F | °C
As of 12:00 PM on Monday 24 Nov 2014 (Local Time) from USPP Reporting Station
Clear Clear  
Wind Chill: -17°   Ceiling: Unl
Heat Index:   Visibility: 6mi
Dew Point: -8°   Wind: 11mph
Humidity: 72%   Direction: 260°W
Pressure: 30.68"   Gusts: NA
Location:  57.28°N, 55.43°E
Report Text: USPP 240700Z 26005MPS CAVOK M18/M22 Q1039 21090060 NOSIG RMKQFE768/1024
Loading
Personal Weather Stations






























Interactive Weather Map New forecast layout! Learn more

10-Day Weather Forecast

Advertisements
Track Severe Weather on mobile